Time;durP1;ratioP1;P1;durP2;ratioP2;P2;SDS_P1;SDS_P2;PMS_P1;PMS_P2;Temp;Humidity;BMP_temperature;BMP_pressure;BME280_temperature;BME280_humidity;BME280_pressure;Samples;Min_cycle;Max_cycle;Signal;HPM_P1;HPM_P2
2022/09/28 00:02:12;;;;;;;3.13;1.57;;;;;;;;;;5029208;28;20282;-64
2022/09/28 00:04:39;;;;;;;2.37;1.40;;;;;;;;;;5029135;28;20195;-64
2022/09/28 00:07:06;;;;;;;2.33;1.47;;;;;;;;;;5029410;28;20191;-64
2022/09/28 00:09:32;;;;;;;2.00;1.40;;;;;;;;;;5029929;28;20544;-64
2022/09/28 00:11:59;;;;;;;1.70;1.40;;;;;;;;;;5029181;28;20245;-64
2022/09/28 00:14:26;;;;;;;3.83;1.50;;;;;;;;;;5029312;28;20253;-64
2022/09/28 00:16:53;;;;;;;2.00;1.77;;;;;;;;;;5029250;28;20211;-64
2022/09/28 00:19:19;;;;;;;2.27;1.80;;;;;;;;;;5028988;28;21094;-64
2022/09/28 00:21:46;;;;;;;2.40;1.67;;;;;;;;;;5028989;28;20253;-65
2022/09/28 00:24:17;;;;;;;2.17;1.80;;;;;;;;;;5028481;28;20253;-64
2022/09/28 00:26:51;;;;;;;2.83;1.80;;;;;;;;;;5028968;28;20250;-64
2022/09/28 00:29:19;;;;;;;2.50;2.03;;;;;;;;;;5029137;28;20191;-64
2022/09/28 00:31:46;;;;;;;2.20;1.50;;;;;;;;;;5028723;28;20932;-64
2022/09/28 00:34:12;;;;;;;2.10;1.73;;;;;;;;;;5029069;28;20253;-64
2022/09/28 00:36:41;;;;;;;1.73;1.40;;;;;;;;;;5029363;28;20192;-64
2022/09/28 00:39:08;;;;;;;2.10;1.63;;;;;;;;;;5028966;28;20275;-64
2022/09/28 00:41:35;;;;;;;2.20;1.70;;;;;;;;;;5029079;28;20205;-64
2022/09/28 00:44:20;;;;;;;2.47;1.47;;;;;;;;;;5028954;28;20259;-64
2022/09/28 00:46:50;;;;;;;2.97;1.73;;;;;;;;;;5028770;28;20211;-64
2022/09/28 00:49:16;;;;;;;2.20;1.60;;;;;;;;;;5044074;28;20551;-64
2022/09/28 00:51:43;;;;;;;1.80;1.60;;;;;;;;;;5044000;28;20214;-65
2022/09/28 00:54:10;;;;;;;1.90;1.57;;;;;;;;;;5029021;28;20188;-64
2022/09/28 00:56:37;;;;;;;1.87;1.47;;;;;;;;;;5011110;28;20282;-64
2022/09/28 00:59:04;;;;;;;2.23;1.60;;;;;;;;;;5010869;28;20675;-64
2022/09/28 01:01:30;;;;;;;2.00;1.70;;;;;;;;;;5011110;28;20199;-64
2022/09/28 01:03:57;;;;;;;2.50;1.80;;;;;;;;;;5028475;28;20718;-64
2022/09/28 01:06:26;;;;;;;2.30;1.67;;;;;;;;;;5011262;28;20301;-64
2022/09/28 01:08:54;;;;;;;2.17;1.90;;;;;;;;;;5011149;28;20650;-64
2022/09/28 01:11:21;;;;;;;3.67;1.53;;;;;;;;;;5027451;28;20670;-65
2022/09/28 01:13:48;;;;;;;1.90;1.50;;;;;;;;;;5028870;28;20719;-64
2022/09/28 01:16:22;;;;;;;1.60;1.40;;;;;;;;;;5011063;28;20230;-64
2022/09/28 01:18:54;;;;;;;2.20;1.80;;;;;;;;;;5010533;28;20901;-65
2022/09/28 01:21:22;;;;;;;2.30;1.50;;;;;;;;;;5011181;28;20219;-65
2022/09/28 01:23:54;;;;;;;4.17;1.60;;;;;;;;;;5010354;28;20194;-65
2022/09/28 01:26:24;;;;;;;3.57;2.17;;;;;;;;;;5028549;28;20215;-64
2022/09/28 01:28:52;;;;;;;2.83;1.80;;;;;;;;;;5028500;28;20197;-64
2022/09/28 01:31:19;;;;;;;2.37;1.60;;;;;;;;;;5010807;28;20226;-64
2022/09/28 01:33:51;;;;;;;2.80;1.67;;;;;;;;;;5026676;28;20921;-64
2022/09/28 01:36:20;;;;;;;3.33;1.93;;;;;;;;;;5031692;28;20203;-64
2022/09/28 01:38:47;;;;;;;2.43;1.83;;;;;;;;;;5014065;28;20195;-64
2022/09/28 01:41:16;;;;;;;2.80;2.10;;;;;;;;;;5030985;28;20192;-64
2022/09/28 01:44:02;;;;;;;2.10;1.90;;;;;;;;;;5031700;28;20179;-64
2022/09/28 01:46:36;;;;;;;3.00;2.03;;;;;;;;;;5013835;28;20203;-65
2022/09/28 01:49:17;;;;;;;2.10;1.77;;;;;;;;;;5030525;28;20195;-64
2022/09/28 01:52:07;;;;;;;3.90;2.03;;;;;;;;;;5030792;28;20310;-64
2022/09/28 01:55:21;;;;;;;4.20;2.07;;;;;;;;;;5013943;28;20179;-64
2022/09/28 01:58:18;;;;;;;3.07;2.30;;;;;;;;;;5005656;28;20206;-64
2022/09/28 02:00:46;;;;;;;8.23;2.10;;;;;;;;;;4978109;28;20201;-64
2022/09/28 02:03:19;;;;;;;2.97;1.93;;;;;;;;;;5014201;28;20290;-65
2022/09/28 02:05:57;;;;;;;2.33;2.00;;;;;;;;;;5013772;28;20211;-64
2022/09/28 02:08:28;;;;;;;2.53;1.83;;;;;;;;;;5013539;28;20950;-65
2022/09/28 02:11:07;;;;;;;3.00;2.37;;;;;;;;;;5013909;28;20282;-64
2022/09/28 02:13:35;;;;;;;2.27;2.00;;;;;;;;;;5029878;28;20252;-64
2022/09/28 02:16:02;;;;;;;3.57;2.30;;;;;;;;;;5013537;28;20196;-64
2022/09/28 02:18:29;;;;;;;3.20;2.37;;;;;;;;;;5031470;28;20234;-64
2022/09/28 02:21:06;;;;;;;3.80;2.27;;;;;;;;;;5031343;28;20187;-64
2022/09/28 02:23:34;;;;;;;3.00;2.50;;;;;;;;;;5030068;28;20573;-64
2022/09/28 02:26:02;;;;;;;3.83;2.53;;;;;;;;;;5013407;28;20219;-65
2022/09/28 02:28:29;;;;;;;4.87;3.20;;;;;;;;;;5012325;28;20452;-65
2022/09/28 02:30:56;;;;;;;4.03;3.30;;;;;;;;;;5013496;28;20473;-65
2022/09/28 02:33:23;;;;;;;3.57;2.50;;;;;;;;;;5010031;28;20224;-65
2022/09/28 02:35:49;;;;;;;3.00;2.30;;;;;;;;;;5009649;28;20196;-65
2022/09/28 02:38:18;;;;;;;4.37;2.87;;;;;;;;;;5009946;28;20718;-65
2022/09/28 02:40:49;;;;;;;3.47;2.40;;;;;;;;;;5009733;28;20297;-65
2022/09/28 02:43:23;;;;;;;2.73;2.07;;;;;;;;;;5009900;28;20196;-65
2022/09/28 02:45:54;;;;;;;2.83;2.30;;;;;;;;;;5009502;28;20220;-65
2022/09/28 02:48:26;;;;;;;3.73;2.40;;;;;;;;;;5009595;28;20270;-65
2022/09/28 02:51:17;;;;;;;3.53;2.30;;;;;;;;;;5009914;28;20286;-65
2022/09/28 02:54:09;;;;;;;3.27;2.30;;;;;;;;;;5009385;28;20180;-65
2022/09/28 02:56:41;;;;;;;5.43;2.40;;;;;;;;;;5010859;28;20192;-65
2022/09/28 02:59:11;;;;;;;2.77;2.17;;;;;;;;;;5009607;28;20268;-65
2022/09/28 03:02:12;;;;;;;3.30;2.33;;;;;;;;;;5009354;28;20857;-65
2022/09/28 03:04:55;;;;;;;4.07;2.30;;;;;;;;;;5008861;28;20211;-65
2022/09/28 03:07:28;;;;;;;2.97;2.20;;;;;;;;;;5009361;28;20224;-65
2022/09/28 03:09:54;;;;;;;4.50;2.27;;;;;;;;;;5009465;28;20196;-65
2022/09/28 03:12:22;;;;;;;3.83;2.30;;;;;;;;;;5009660;28;20199;-65
2022/09/28 03:15:08;;;;;;;4.90;2.80;;;;;;;;;;5009436;28;20290;-65
2022/09/28 03:17:54;;;;;;;3.53;2.30;;;;;;;;;;5009543;28;20216;-65
2022/09/28 03:20:21;;;;;;;2.77;2.30;;;;;;;;;;5010284;28;20215;-65
2022/09/28 03:22:48;;;;;;;2.63;1.83;;;;;;;;;;5010634;28;20189;-66
2022/09/28 03:25:35;;;;;;;4.63;2.10;;;;;;;;;;5009091;28;20202;-66
2022/09/28 03:28:01;;;;;;;4.33;1.97;;;;;;;;;;5010580;28;20184;-66
2022/09/28 03:30:33;;;;;;;7.43;2.17;;;;;;;;;;5009281;28;20235;-66
2022/09/28 03:33:01;;;;;;;3.23;2.10;;;;;;;;;;5021271;28;20956;-65
2022/09/28 03:35:30;;;;;;;2.10;1.70;;;;;;;;;;5028390;28;20203;-66
2022/09/28 03:37:57;;;;;;;3.23;2.13;;;;;;;;;;5014781;28;20187;-66
2022/09/28 03:40:26;;;;;;;3.77;2.20;;;;;;;;;;5008670;28;20192;-66
2022/09/28 03:42:53;;;;;;;4.30;2.03;;;;;;;;;;5010443;28;20286;-66
2022/09/28 03:45:20;;;;;;;4.03;2.33;;;;;;;;;;5008807;28;20695;-66
2022/09/28 03:47:49;;;;;;;3.43;2.30;;;;;;;;;;5025132;28;20247;-66
2022/09/28 03:50:17;;;;;;;3.73;2.53;;;;;;;;;;5008520;28;20210;-66
2022/09/28 03:52:44;;;;;;;6.20;2.70;;;;;;;;;;5008676;28;20839;-66
2022/09/28 03:55:11;;;;;;;3.97;2.60;;;;;;;;;;5008567;28;20686;-66
2022/09/28 03:57:37;;;;;;;5.87;3.17;;;;;;;;;;5008837;28;20196;-66
2022/09/28 04:00:04;;;;;;;4.47;3.40;;;;;;;;;;5008350;28;20202;-66
2022/09/28 04:02:39;;;;;;;4.07;3.20;;;;;;;;;;5009751;28;20226;-66
2022/09/28 04:05:06;;;;;;;4.60;2.80;;;;;;;;;;5008219;28;20286;-66
2022/09/28 04:07:33;;;;;;;4.37;2.47;;;;;;;;;;5008385;28;20220;-66
2022/09/28 04:09:59;;;;;;;3.90;2.40;;;;;;;;;;5008329;28;20314;-66
2022/09/28 04:12:26;;;;;;;4.27;2.63;;;;;;;;;;5000759;28;20188;-66
2022/09/28 04:14:53;;;;;;;5.47;3.00;;;;;;;;;;5002756;28;20288;-66
2022/09/28 04:17:19;;;;;;;3.60;2.77;;;;;;;;;;4998858;28;20192;-66
2022/09/28 04:19:47;;;;;;;4.67;3.20;;;;;;;;;;5006457;28;20280;-66
2022/09/28 04:22:45;;;;;;;4.43;2.70;;;;;;;;;;4970522;28;20204;-66
2022/09/28 04:25:13;;;;;;;10.30;2.70;;;;;;;;;;5002448;28;20266;-66
2022/09/28 04:30:25;;;;;;;5.60;3.83;;;;;;;;;;5008142;28;20244;-66
2022/09/28 04:32:51;;;;;;;4.30;3.23;;;;;;;;;;5008304;28;20243;-66
2022/09/28 04:35:18;;;;;;;4.93;3.70;;;;;;;;;;5007864;28;20196;-66
2022/09/28 04:37:45;;;;;;;4.57;3.70;;;;;;;;;;5005752;28;20193;-66
2022/09/28 04:40:12;;;;;;;4.50;3.57;;;;;;;;;;5004426;28;20201;-67
2022/09/28 04:42:39;;;;;;;5.13;4.10;;;;;;;;;;5008728;28;20184;-67
2022/09/28 04:45:07;;;;;;;5.83;4.10;;;;;;;;;;5007441;28;20235;-66
2022/09/28 04:47:37;;;;;;;4.50;3.67;;;;;;;;;;5008279;28;20606;-66
2022/09/28 04:50:22;;;;;;;4.70;4.20;;;;;;;;;;5008924;28;20199;-66
2022/09/28 04:53:05;;;;;;;4.93;3.80;;;;;;;;;;5007911;28;20294;-67
2022/09/28 04:55:31;;;;;;;5.60;4.47;;;;;;;;;;5009273;28;20204;-66
2022/09/28 04:58:02;;;;;;;6.73;5.47;;;;;;;;;;5013835;28;20191;-66
2022/09/28 05:00:34;;;;;;;6.27;4.90;;;;;;;;;;5008007;28;20254;-66
2022/09/28 05:03:37;;;;;;;8.10;5.60;;;;;;;;;;5009605;28;20291;-66
2022/09/28 05:06:36;;;;;;;7.80;6.60;;;;;;;;;;4961272;28;20234;-66
2022/09/28 05:09:05;;;;;;;8.73;6.80;;;;;;;;;;5000468;28;20200;-66
2022/09/28 05:11:32;;;;;;;6.83;5.63;;;;;;;;;;5009888;28;20185;-66
2022/09/28 05:13:59;;;;;;;7.10;5.30;;;;;;;;;;5011573;28;20235;-66
2022/09/28 05:16:29;;;;;;;7.57;5.27;;;;;;;;;;5011549;28;20207;-66
2022/09/28 05:19:19;;;;;;;7.07;5.80;;;;;;;;;;4993081;28;20981;-66
2022/09/28 05:21:48;;;;;;;6.23;4.77;;;;;;;;;;5006503;28;20278;-66
2022/09/28 05:24:15;;;;;;;6.87;5.07;;;;;;;;;;5027283;28;20191;-66
2022/09/28 05:26:47;;;;;;;6.03;4.53;;;;;;;;;;5021328;28;20219;-66
2022/09/28 05:29:15;;;;;;;6.43;4.90;;;;;;;;;;5011092;28;20228;-66
2022/09/28 05:31:47;;;;;;;7.77;5.30;;;;;;;;;;5009636;28;20204;-66
2022/09/28 05:34:47;;;;;;;6.73;5.23;;;;;;;;;;4988374;28;20203;-66
2022/09/28 05:37:20;;;;;;;6.43;5.53;;;;;;;;;;5014512;28;20195;-66
2022/09/28 05:39:47;;;;;;;6.60;5.10;;;;;;;;;;5014418;28;20222;-66
2022/09/28 05:42:13;;;;;;;6.93;5.00;;;;;;;;;;5014398;28;20218;-66
2022/09/28 05:44:41;;;;;;;7.13;5.30;;;;;;;;;;5014327;28;20203;-66
2022/09/28 05:47:10;;;;;;;6.97;5.17;;;;;;;;;;5014060;28;20226;-66
2022/09/28 05:49:37;;;;;;;6.47;5.43;;;;;;;;;;5014362;28;20273;-65
2022/09/28 05:52:04;;;;;;;7.07;5.50;;;;;;;;;;5013930;28;20183;-65
2022/09/28 05:54:35;;;;;;;7.77;5.67;;;;;;;;;;5014376;28;20203;-65
2022/09/28 05:57:03;;;;;;;6.93;5.40;;;;;;;;;;5031559;28;20205;-65
2022/09/28 05:59:30;;;;;;;6.63;5.70;;;;;;;;;;5031926;28;20188;-65
2022/09/28 06:01:57;;;;;;;6.37;5.27;;;;;;;;;;5031820;28;20270;-65
2022/09/28 06:04:24;;;;;;;6.73;5.37;;;;;;;;;;5030211;28;20246;-65
2022/09/28 06:06:51;;;;;;;7.10;5.73;;;;;;;;;;5014015;28;20617;-65
2022/09/28 06:09:18;;;;;;;6.93;5.57;;;;;;;;;;5014258;28;20191;-65
2022/09/28 06:12:17;;;;;;;7.80;5.83;;;;;;;;;;5027739;28;20211;-65
2022/09/28 06:14:49;;;;;;;7.67;6.10;;;;;;;;;;5013699;28;20757;-65
2022/09/28 06:17:33;;;;;;;8.17;5.53;;;;;;;;;;5013641;28;20715;-65
2022/09/28 06:20:41;;;;;;;9.03;5.90;;;;;;;;;;4989471;28;20205;-65
2022/09/28 06:23:13;;;;;;;8.00;5.63;;;;;;;;;;4989563;28;20732;-65
2022/09/28 06:25:40;;;;;;;8.43;6.27;;;;;;;;;;4994622;28;20195;-65
2022/09/28 06:28:11;;;;;;;8.03;5.33;;;;;;;;;;5030885;28;20435;-65
2022/09/28 06:30:55;;;;;;;8.07;5.80;;;;;;;;;;5013372;28;20179;-65
2022/09/28 06:33:24;;;;;;;8.53;5.90;;;;;;;;;;5013321;28;20756;-65
2022/09/28 06:35:51;;;;;;;7.07;5.80;;;;;;;;;;5013349;28;20736;-65
2022/09/28 06:38:18;;;;;;;7.80;6.10;;;;;;;;;;5017368;28;20196;-65
2022/09/28 06:40:46;;;;;;;7.40;5.63;;;;;;;;;;5013189;28;20192;-65
2022/09/28 06:43:14;;;;;;;10.43;6.37;;;;;;;;;;5030867;28;20654;-65
2022/09/28 06:46:00;;;;;;;8.83;6.00;;;;;;;;;;5031133;28;20225;-65
2022/09/28 06:48:56;;;;;;;8.03;5.80;;;;;;;;;;4942582;28;20215;-66
2022/09/28 06:51:58;;;;;;;9.53;5.93;;;;;;;;;;4950483;29;20198;-65
2022/09/28 06:55:09;;;;;;;7.23;5.23;;;;;;;;;;4999786;28;20191;-65
2022/09/28 06:57:45;;;;;;;7.53;5.33;;;;;;;;;;5013343;28;20207;-65
2022/09/28 07:00:32;;;;;;;7.17;5.60;;;;;;;;;;5013479;28;20175;-65
2022/09/28 07:03:04;;;;;;;8.00;5.37;;;;;;;;;;5012779;28;20199;-65
2022/09/28 07:06:17;;;;;;;7.67;5.10;;;;;;;;;;5013232;28;20182;-65
2022/09/28 07:09:05;;;;;;;7.43;5.43;;;;;;;;;;5030457;28;20370;-65
2022/09/28 07:12:12;;;;;;;7.17;5.70;;;;;;;;;;4993092;28;20187;-65
2022/09/28 07:14:54;;;;;;;7.70;5.33;;;;;;;;;;5012592;28;20199;-65
2022/09/28 07:17:23;;;;;;;6.07;5.27;;;;;;;;;;5012512;28;20207;-65
2022/09/28 07:19:54;;;;;;;7.47;5.27;;;;;;;;;;5012330;28;20191;-65
2022/09/28 07:22:21;;;;;;;6.70;5.83;;;;;;;;;;5012614;28;20199;-65
2022/09/28 07:25:06;;;;;;;6.53;5.33;;;;;;;;;;5012421;28;20285;-65
2022/09/28 07:27:38;;;;;;;7.10;5.40;;;;;;;;;;5030441;28;20602;-65
2022/09/28 07:30:14;;;;;;;7.00;5.83;;;;;;;;;;5012791;28;20199;-65
2022/09/28 07:33:16;;;;;;;7.07;4.87;;;;;;;;;;4949102;28;20265;-65
2022/09/28 07:35:52;;;;;;;8.07;5.60;;;;;;;;;;5002217;28;20197;-65
2022/09/28 07:38:21;;;;;;;8.07;6.00;;;;;;;;;;5027552;28;20249;-65
2022/09/28 07:43:38;;;;;;;8.83;6.40;;;;;;;;;;5028778;28;20256;-65
2022/09/28 07:46:10;;;;;;;7.33;5.73;;;;;;;;;;5028468;28;20309;-65
2022/09/28 07:48:44;;;;;;;6.33;5.27;;;;;;;;;;5045152;28;20227;-65
2022/09/28 07:51:37;;;;;;;6.10;5.20;;;;;;;;;;5030213;28;20176;-65
2022/09/28 07:54:38;;;;;;;6.33;5.13;;;;;;;;;;4985950;28;20207;-65
2022/09/28 07:57:23;;;;;;;6.53;4.93;;;;;;;;;;5029871;28;20198;-65
2022/09/28 08:00:13;;;;;;;5.43;4.60;;;;;;;;;;5019764;28;20203;-65
2022/09/28 08:02:59;;;;;;;5.73;4.90;;;;;;;;;;5028332;28;20179;-65
2022/09/28 08:05:30;;;;;;;5.47;4.57;;;;;;;;;;5028166;28;20199;-66
2022/09/28 08:07:58;;;;;;;7.93;5.50;;;;;;;;;;5029581;28;20606;-66
2022/09/28 08:10:27;;;;;;;8.73;5.63;;;;;;;;;;5028277;28;20195;-65
2022/09/28 08:13:15;;;;;;;6.43;4.97;;;;;;;;;;4998766;28;20234;-65
2022/09/28 08:16:01;;;;;;;6.50;5.23;;;;;;;;;;5028496;28;20721;-65
2022/09/28 08:18:39;;;;;;;6.97;5.47;;;;;;;;;;5028312;28;20198;-65
2022/09/28 08:23:52;;;;;;;6.70;5.70;;;;;;;;;;5028015;28;20195;-66
2022/09/28 08:26:37;;;;;;;8.97;6.40;;;;;;;;;;5028012;28;20252;-65
2022/09/28 08:29:04;;;;;;;7.13;5.90;;;;;;;;;;5027644;28;20197;-65
2022/09/28 08:31:49;;;;;;;7.27;6.00;;;;;;;;;;5028881;28;20191;-65
2022/09/28 08:34:36;;;;;;;9.07;6.70;;;;;;;;;;5028961;28;20613;-65
2022/09/28 08:37:26;;;;;;;8.57;6.90;;;;;;;;;;5025812;28;20214;-65
2022/09/28 08:40:16;;;;;;;8.97;7.20;;;;;;;;;;5029450;28;20209;-66
2022/09/28 08:43:18;;;;;;;8.00;6.20;;;;;;;;;;5028227;28;20630;-65
2022/09/28 08:46:03;;;;;;;7.63;6.57;;;;;;;;;;5031063;28;20197;-66
2022/09/28 08:49:28;;;;;;;7.60;6.57;;;;;;;;;;5015147;28;20252;-66
2022/09/28 08:52:25;;;;;;;8.53;7.07;;;;;;;;;;5015624;28;20195;-66
2022/09/28 08:55:35;;;;;;;8.57;6.33;;;;;;;;;;5015246;28;20248;-66
2022/09/28 08:58:07;;;;;;;10.47;7.20;;;;;;;;;;5015195;28;20737;-66
2022/09/28 09:00:37;;;;;;;10.43;7.93;;;;;;;;;;5015494;28;20708;-66
2022/09/28 09:03:06;;;;;;;9.20;7.47;;;;;;;;;;5015116;28;20233;-66
2022/09/28 09:05:38;;;;;;;9.63;7.33;;;;;;;;;;5015020;28;20663;-65
2022/09/28 09:08:17;;;;;;;7.33;6.57;;;;;;;;;;5031561;28;20215;-65
2022/09/28 09:10:46;;;;;;;7.73;6.43;;;;;;;;;;5031195;28;20226;-66
2022/09/28 09:13:17;;;;;;;7.27;5.97;;;;;;;;;;5014999;28;20232;-66
2022/09/28 09:15:52;;;;;;;7.87;6.33;;;;;;;;;;5014739;28;20294;-65
2022/09/28 09:18:40;;;;;;;8.47;7.00;;;;;;;;;;5014877;28;20200;-65
2022/09/28 09:21:38;;;;;;;7.30;6.33;;;;;;;;;;5001822;28;20335;-65
2022/09/28 09:24:25;;;;;;;7.73;6.30;;;;;;;;;;5014533;28;20210;-65
2022/09/28 09:27:01;;;;;;;7.47;6.07;;;;;;;;;;5014585;28;20196;-66
2022/09/28 09:29:35;;;;;;;7.57;6.77;;;;;;;;;;5014287;28;20203;-65
2022/09/28 09:32:35;;;;;;;8.87;6.50;;;;;;;;;;5014104;28;20338;-66
2022/09/28 09:35:04;;;;;;;7.70;6.77;;;;;;;;;;4981185;28;20203;-65
2022/09/28 09:37:45;;;;;;;9.27;7.03;;;;;;;;;;5030865;28;20223;-66
2022/09/28 09:40:41;;;;;;;8.70;6.23;;;;;;;;;;5030852;28;20202;-65
2022/09/28 09:43:33;;;;;;;7.70;6.90;;;;;;;;;;5030678;28;20709;-65
2022/09/28 09:46:38;;;;;;;9.87;6.97;;;;;;;;;;5029426;28;20226;-65
2022/09/28 09:49:19;;;;;;;11.07;7.80;;;;;;;;;;5011958;28;20709;-66
2022/09/28 09:51:59;;;;;;;9.27;7.60;;;;;;;;;;5046127;28;20206;-66
2022/09/28 09:54:33;;;;;;;9.90;8.33;;;;;;;;;;5029382;28;20684;-65
2022/09/28 09:57:06;;;;;;;9.30;7.50;;;;;;;;;;5029224;28;20295;-65
2022/09/28 10:00:12;;;;;;;9.33;7.10;;;;;;;;;;5007641;28;20203;-65
2022/09/28 10:02:53;;;;;;;9.37;7.50;;;;;;;;;;5029501;28;20199;-65
2022/09/28 10:05:32;;;;;;;10.47;7.33;;;;;;;;;;5029323;28;20218;-65
2022/09/28 10:08:02;;;;;;;9.33;6.13;;;;;;;;;;5029343;28;20215;-65
2022/09/28 10:10:33;;;;;;;8.10;6.20;;;;;;;;;;5029107;28;20199;-65
2022/09/28 10:13:09;;;;;;;8.27;6.40;;;;;;;;;;5029024;28;20273;-65
2022/09/28 10:15:37;;;;;;;7.20;5.57;;;;;;;;;;5046077;28;20199;-65
2022/09/28 10:18:13;;;;;;;7.93;6.27;;;;;;;;;;5029493;28;20194;-65
2022/09/28 10:20:58;;;;;;;10.03;6.20;;;;;;;;;;5030298;28;20195;-65
2022/09/28 10:23:33;;;;;;;7.70;6.37;;;;;;;;;;5029189;28;20197;-65
2022/09/28 10:26:02;;;;;;;7.63;5.97;;;;;;;;;;5029131;28;20206;-64
2022/09/28 10:28:32;;;;;;;7.73;6.07;;;;;;;;;;5028978;28;20212;-65
2022/09/28 10:31:00;;;;;;;6.00;5.20;;;;;;;;;;5029250;28;20601;-65
2022/09/28 10:33:32;;;;;;;6.97;5.70;;;;;;;;;;4984644;28;1294659;-65
2022/09/28 10:35:59;;;;;;;7.20;5.60;;;;;;;;;;5029537;28;20206;-64
2022/09/28 10:38:26;;;;;;;6.83;5.73;;;;;;;;;;5030281;28;20190;-65
2022/09/28 10:41:09;;;;;;;7.37;5.63;;;;;;;;;;5029968;28;20202;-65
2022/09/28 10:44:11;;;;;;;7.67;6.03;;;;;;;;;;4997435;28;20199;-65
2022/09/28 10:47:01;;;;;;;8.10;5.93;;;;;;;;;;5026309;28;20235;-65
2022/09/28 10:49:38;;;;;;;7.90;6.27;;;;;;;;;;5012928;28;20261;-65
2022/09/28 10:52:35;;;;;;;7.80;5.90;;;;;;;;;;5013491;28;20199;-64
2022/09/28 10:55:04;;;;;;;22.97;10.67;;;;;;;;;;5013153;28;20203;-64
2022/09/28 10:57:35;;;;;;;15.57;8.47;;;;;;;;;;5030003;28;20183;-64
2022/09/28 11:00:12;;;;;;;11.77;6.83;;;;;;;;;;5012983;28;20887;-64
2022/09/28 11:02:49;;;;;;;8.10;5.83;;;;;;;;;;5012926;28;20199;-65
2022/09/28 11:05:20;;;;;;;7.57;5.57;;;;;;;;;;5012555;28;20227;-64
2022/09/28 11:07:50;;;;;;;7.10;5.50;;;;;;;;;;5011996;28;20222;-64
2022/09/28 11:10:31;;;;;;;10.00;6.10;;;;;;;;;;5029102;28;20289;-65
2022/09/28 11:13:07;;;;;;;7.40;5.90;;;;;;;;;;5012578;28;20997;-64
2022/09/28 11:15:35;;;;;;;8.33;5.67;;;;;;;;;;5012806;28;20297;-65
2022/09/28 11:18:22;;;;;;;6.67;5.50;;;;;;;;;;5028873;28;20201;-64
2022/09/28 11:20:49;;;;;;;5.33;4.40;;;;;;;;;;5028812;28;20736;-65
2022/09/28 11:23:35;;;;;;;9.37;4.87;;;;;;;;;;5012498;28;20200;-64
2022/09/28 11:26:20;;;;;;;5.10;4.10;;;;;;;;;;5012383;28;20242;-64
2022/09/28 11:28:51;;;;;;;5.00;3.83;;;;;;;;;;5012354;28;20598;-64
2022/09/28 11:31:28;;;;;;;5.40;3.80;;;;;;;;;;5012445;28;20222;-64
2022/09/28 11:34:05;;;;;;;5.13;3.97;;;;;;;;;;5012246;28;20223;-64
2022/09/28 11:36:58;;;;;;;5.10;3.70;;;;;;;;;;5029047;28;20199;-64
2022/09/28 11:39:28;;;;;;;4.90;3.60;;;;;;;;;;5029021;28;20192;-64
2022/09/28 11:42:01;;;;;;;5.43;3.70;;;;;;;;;;5030096;28;20654;-64
2022/09/28 11:44:38;;;;;;;4.23;3.57;;;;;;;;;;5028765;28;20797;-64
2022/09/28 11:47:14;;;;;;;5.17;3.80;;;;;;;;;;5028483;28;20207;-64
2022/09/28 11:49:46;;;;;;;4.30;3.90;;;;;;;;;;5028265;28;20227;-64
2022/09/28 11:52:37;;;;;;;5.20;3.90;;;;;;;;;;5028234;28;20199;-64
2022/09/28 11:55:05;;;;;;;6.30;4.07;;;;;;;;;;5021158;28;20598;-64
2022/09/28 11:57:37;;;;;;;4.43;3.53;;;;;;;;;;5028682;28;20201;-64
2022/09/28 12:00:14;;;;;;;4.40;3.10;;;;;;;;;;5044859;28;20543;-64
2022/09/28 12:02:49;;;;;;;4.33;3.13;;;;;;;;;;5028028;28;20633;-64
2022/09/28 12:05:33;;;;;;;3.13;2.70;;;;;;;;;;5028020;28;20199;-63
2022/09/28 12:08:00;;;;;;;2.67;2.47;;;;;;;;;;5028350;28;20265;-64
2022/09/28 12:11:05;;;;;;;2.43;2.23;;;;;;;;;;5029145;28;20334;-64
2022/09/28 12:13:56;;;;;;;2.83;2.30;;;;;;;;;;5026410;28;20582;-64
2022/09/28 12:16:30;;;;;;;2.23;2.03;;;;;;;;;;5044571;28;20206;-64
2022/09/28 12:19:18;;;;;;;2.73;1.87;;;;;;;;;;5041720;28;20187;-64
2022/09/28 12:21:50;;;;;;;1.83;1.63;;;;;;;;;;5029833;28;20950;-63
2022/09/28 12:24:19;;;;;;;2.57;1.80;;;;;;;;;;5029721;28;20203;-64
2022/09/28 12:26:47;;;;;;;2.40;1.57;;;;;;;;;;5029071;28;20188;-64
2022/09/28 12:29:17;;;;;;;1.70;1.60;;;;;;;;;;5044560;28;20305;-65
2022/09/28 12:31:55;;;;;;;2.10;1.80;;;;;;;;;;5029113;28;20183;-64
2022/09/28 12:34:22;;;;;;;2.83;1.40;;;;;;;;;;5029089;28;20199;-64
2022/09/28 12:36:49;;;;;;;2.60;1.43;;;;;;;;;;5029016;28;20731;-64
2022/09/28 12:39:23;;;;;;;1.90;1.50;;;;;;;;;;5029947;28;20543;-65
2022/09/28 12:42:07;;;;;;;2.03;1.50;;;;;;;;;;5027726;28;20634;-65
2022/09/28 12:44:43;;;;;;;1.60;1.50;;;;;;;;;;5011555;28;20682;-65
2022/09/28 12:47:20;;;;;;;2.40;1.50;;;;;;;;;;5028896;28;20195;-65
2022/09/28 12:49:50;;;;;;;2.00;1.70;;;;;;;;;;5027286;28;20320;-65
2022/09/28 12:52:37;;;;;;;1.50;1.30;;;;;;;;;;5029065;28;20724;-65
2022/09/28 12:55:11;;;;;;;1.60;1.30;;;;;;;;;;5028861;28;20211;-65
2022/09/28 12:57:57;;;;;;;3.33;1.63;;;;;;;;;;5028200;28;20551;-65
2022/09/28 13:00:25;;;;;;;1.77;1.30;;;;;;;;;;5029455;28;20253;-64
2022/09/28 13:03:06;;;;;;;2.67;1.60;;;;;;;;;;5028042;28;20198;-64
2022/09/28 13:05:33;;;;;;;6.53;4.00;;;;;;;;;;5027965;28;20180;-64
2022/09/28 13:08:26;;;;;;;1.30;1.20;;;;;;;;;;5028628;28;20210;-65
2022/09/28 13:10:59;;;;;;;5.67;1.67;;;;;;;;;;5005953;28;20680;-65
2022/09/28 13:13:33;;;;;;;1.37;1.27;;;;;;;;;;5028915;28;20205;-64
2022/09/28 13:16:00;;;;;;;2.40;1.27;;;;;;;;;;5029116;28;20563;-64
2022/09/28 13:18:28;;;;;;;2.87;1.37;;;;;;;;;;5028775;28;20207;-65
2022/09/28 13:21:07;;;;;;;3.33;1.40;;;;;;;;;;5028880;28;20195;-64
2022/09/28 13:23:41;;;;;;;1.77;1.30;;;;;;;;;;5027902;28;20191;-65
2022/09/28 13:26:12;;;;;;;2.87;1.53;;;;;;;;;;5028668;28;20196;-65
2022/09/28 13:28:39;;;;;;;1.80;1.40;;;;;;;;;;5023224;28;20582;-65
2022/09/28 13:31:06;;;;;;;1.80;1.23;;;;;;;;;;5009965;28;20176;-64
2022/09/28 13:33:35;;;;;;;2.40;1.30;;;;;;;;;;5017420;28;20223;-64
2022/09/28 13:36:04;;;;;;;5.57;1.50;;;;;;;;;;5024250;28;20615;-65
2022/09/28 13:38:48;;;;;;;1.73;1.47;;;;;;;;;;5019615;28;20222;-64
2022/09/28 13:41:16;;;;;;;3.63;1.73;;;;;;;;;;5022259;28;20191;-64
2022/09/28 13:43:47;;;;;;;1.07;0.90;;;;;;;;;;5033858;28;20195;-65
2022/09/28 13:46:14;;;;;;;2.23;1.07;;;;;;;;;;5026944;28;20826;-64
2022/09/28 13:48:47;;;;;;;1.90;1.30;;;;;;;;;;5027177;28;20254;-64
2022/09/28 13:51:20;;;;;;;2.13;1.30;;;;;;;;;;5032333;28;20196;-64
2022/09/28 13:53:57;;;;;;;1.87;1.23;;;;;;;;;;5032077;28;20291;-65
2022/09/28 13:56:37;;;;;;;1.97;1.50;;;;;;;;;;5020049;28;20218;-64
2022/09/28 13:59:04;;;;;;;2.10;1.77;;;;;;;;;;5033432;28;20191;-65
2022/09/28 14:01:38;;;;;;;4.00;1.77;;;;;;;;;;5033723;28;20614;-65
2022/09/28 14:04:24;;;;;;;1.57;1.40;;;;;;;;;;5018948;28;20191;-64
2022/09/28 14:07:09;;;;;;;3.17;1.43;;;;;;;;;;5033078;28;20214;-64
2022/09/28 14:09:39;;;;;;;2.50;1.83;;;;;;;;;;5033023;28;20281;-64
2022/09/28 14:12:24;;;;;;;2.27;1.97;;;;;;;;;;5033381;28;20222;-65
2022/09/28 14:14:52;;;;;;;2.40;2.00;;;;;;;;;;5033488;28;20187;-64
2022/09/28 14:17:29;;;;;;;3.40;2.23;;;;;;;;;;5033469;28;20195;-64
2022/09/28 14:19:59;;;;;;;3.07;2.33;;;;;;;;;;5032679;28;20191;-65
2022/09/28 14:22:32;;;;;;;3.07;1.87;;;;;;;;;;5032787;28;20536;-64
2022/09/28 14:24:59;;;;;;;3.13;2.00;;;;;;;;;;5033235;28;20755;-65
2022/09/28 14:27:44;;;;;;;2.90;1.90;;;;;;;;;;5033331;28;20199;-65
2022/09/28 14:30:11;;;;;;;3.40;1.93;;;;;;;;;;5033036;28;20211;-65
2022/09/28 14:32:39;;;;;;;2.57;1.90;;;;;;;;;;5032879;28;20831;-64
2022/09/28 14:35:06;;;;;;;2.50;1.90;;;;;;;;;;5032702;28;20666;-65
2022/09/28 14:43:27;;;;;;;2.43;2.00;;;;;;;;;;5031132;28;20235;-64
2022/09/28 14:46:09;;;;;;;4.93;1.80;;;;;;;;;;5019076;28;20187;-64
2022/09/28 14:48:48;;;;;;;6.67;3.83;;;;;;;;;;5032556;28;20214;-65
2022/09/28 14:51:31;;;;;;;2.90;2.20;;;;;;;;;;5033272;28;20582;-64
2022/09/28 14:53:59;;;;;;;3.30;1.83;;;;;;;;;;5032176;28;20582;-64
2022/09/28 14:56:37;;;;;;;3.17;1.80;;;;;;;;;;5032096;28;20196;-63
2022/09/28 14:59:03;;;;;;;3.37;1.90;;;;;;;;;;5030780;28;20191;-63
2022/09/28 15:01:31;;;;;;;3.93;2.20;;;;;;;;;;5032558;28;20191;-63
2022/09/28 15:04:00;;;;;;;2.50;1.80;;;;;;;;;;5032356;28;20587;-64
2022/09/28 15:06:27;;;;;;;3.27;2.33;;;;;;;;;;5031475;28;20191;-64
2022/09/28 15:08:54;;;;;;;3.00;2.00;;;;;;;;;;5031303;28;20219;-64
2022/09/28 15:11:21;;;;;;;2.70;2.00;;;;;;;;;;5013233;28;20559;-63
2022/09/28 15:13:52;;;;;;;2.70;1.80;;;;;;;;;;5029099;28;20195;-64
2022/09/28 15:16:21;;;;;;;2.40;1.50;;;;;;;;;;5030505;28;20554;-63
2022/09/28 15:19:06;;;;;;;2.90;1.73;;;;;;;;;;5030097;28;20188;-64
2022/09/28 15:21:34;;;;;;;4.70;1.73;;;;;;;;;;5030674;28;20676;-63
2022/09/28 15:24:01;;;;;;;3.63;1.77;;;;;;;;;;5028965;28;20298;-63
2022/09/28 15:26:29;;;;;;;3.53;1.70;;;;;;;;;;5026522;28;20584;-64
2022/09/28 15:28:56;;;;;;;2.40;1.40;;;;;;;;;;5020437;28;20215;-65
2022/09/28 15:31:25;;;;;;;1.90;1.50;;;;;;;;;;5019288;28;20203;-64
2022/09/28 15:36:38;;;;;;;4.93;1.60;;;;;;;;;;5027775;28;20539;-64
2022/09/28 15:39:15;;;;;;;3.23;1.80;;;;;;;;;;5015168;28;21031;-65
2022/09/28 15:41:42;;;;;;;3.40;2.10;;;;;;;;;;5024282;28;20249;-65
2022/09/28 15:44:09;;;;;;;5.17;2.30;;;;;;;;;;5028884;28;20191;-65
2022/09/28 15:46:37;;;;;;;3.10;2.10;;;;;;;;;;5013951;28;20210;-65
2022/09/28 15:49:04;;;;;;;2.57;2.20;;;;;;;;;;5026502;28;20269;-64